sensor_id;sensor_type;location;lat;lon;timestamp;P1;durP1;ratioP1;P2;durP2;ratioP2
3417;SDS011;1722;51.316;12.370;2022-12-18T00:00:49;46.00;;;22.30;;
3417;SDS011;1722;51.316;12.370;2022-12-18T00:03:16;44.28;;;21.50;;
3417;SDS011;1722;51.316;12.370;2022-12-18T00:05:47;43.72;;;20.38;;
3417;SDS011;1722;51.316;12.370;2022-12-18T00:08:15;45.28;;;20.55;;
3417;SDS011;1722;51.316;12.370;2022-12-18T00:10:44;47.97;;;20.92;;
3417;SDS011;1722;51.316;12.370;2022-12-18T00:13:12;42.75;;;21.70;;
3417;SDS011;1722;51.316;12.370;2022-12-18T00:15:40;47.38;;;21.00;;
3417;SDS011;1722;51.316;12.370;2022-12-18T00:18:07;37.38;;;20.23;;
3417;SDS011;1722;51.316;12.370;2022-12-18T00:20:38;45.88;;;20.60;;
3417;SDS011;1722;51.316;12.370;2022-12-18T00:23:06;42.90;;;20.13;;
3417;SDS011;1722;51.316;12.370;2022-12-18T00:25:34;45.15;;;20.00;;
3417;SDS011;1722;51.316;12.370;2022-12-18T00:28:03;38.85;;;19.17;;
3417;SDS011;1722;51.316;12.370;2022-12-18T00:30:30;33.90;;;18.05;;
3417;SDS011;1722;51.316;12.370;2022-12-18T00:32:58;40.92;;;18.80;;
3417;SDS011;1722;51.316;12.370;2022-12-18T00:35:25;38.25;;;18.92;;
3417;SDS011;1722;51.316;12.370;2022-12-18T00:37:53;41.60;;;19.75;;
3417;SDS011;1722;51.316;12.370;2022-12-18T00:40:20;41.17;;;21.02;;
3417;SDS011;1722;51.316;12.370;2022-12-18T00:42:48;42.65;;;19.15;;
3417;SDS011;1722;51.316;12.370;2022-12-18T00:45:25;48.13;;;21.67;;
3417;SDS011;1722;51.316;12.370;2022-12-18T00:47:54;50.33;;;21.73;;
3417;SDS011;1722;51.316;12.370;2022-12-18T00:50:22;43.22;;;20.45;;
3417;SDS011;1722;51.316;12.370;2022-12-18T00:52:51;45.20;;;21.67;;
3417;SDS011;1722;51.316;12.370;2022-12-18T00:55:18;40.58;;;20.25;;
3417;SDS011;1722;51.316;12.370;2022-12-18T00:57:46;37.92;;;18.98;;
3417;SDS011;1722;51.316;12.370;2022-12-18T01:00:14;38.13;;;20.30;;
3417;SDS011;1722;51.316;12.370;2022-12-18T01:02:43;44.33;;;20.42;;
3417;SDS011;1722;51.316;12.370;2022-12-18T01:05:12;47.70;;;21.33;;
3417;SDS011;1722;51.316;12.370;2022-12-18T01:07:40;49.03;;;21.70;;
3417;SDS011;1722;51.316;12.370;2022-12-18T01:10:09;55.13;;;22.77;;
3417;SDS011;1722;51.316;12.370;2022-12-18T01:12:38;40.92;;;20.40;;
3417;SDS011;1722;51.316;12.370;2022-12-18T01:15:06;49.40;;;21.98;;
3417;SDS011;1722;51.316;12.370;2022-12-18T01:17:34;47.30;;;21.52;;
3417;SDS011;1722;51.316;12.370;2022-12-18T01:20:04;52.85;;;21.92;;
3417;SDS011;1722;51.316;12.370;2022-12-18T01:22:32;53.47;;;23.55;;
3417;SDS011;1722;51.316;12.370;2022-12-18T01:25:00;47.40;;;22.13;;
3417;SDS011;1722;51.316;12.370;2022-12-18T01:27:27;40.28;;;20.85;;
3417;SDS011;1722;51.316;12.370;2022-12-18T01:29:55;51.50;;;22.95;;
3417;SDS011;1722;51.316;12.370;2022-12-18T01:32:23;53.38;;;23.35;;
3417;SDS011;1722;51.316;12.370;2022-12-18T01:34:50;37.88;;;19.40;;
3417;SDS011;1722;51.316;12.370;2022-12-18T01:37:19;40.72;;;19.95;;
3417;SDS011;1722;51.316;12.370;2022-12-18T01:39:47;44.50;;;20.63;;
3417;SDS011;1722;51.316;12.370;2022-12-18T01:42:16;43.53;;;20.00;;
3417;SDS011;1722;51.316;12.370;2022-12-18T01:44:54;39.17;;;20.40;;
3417;SDS011;1722;51.316;12.370;2022-12-18T01:47:32;37.15;;;18.83;;
3417;SDS011;1722;51.316;12.370;2022-12-18T01:50:04;40.90;;;20.55;;
3417;SDS011;1722;51.316;12.370;2022-12-18T01:52:37;36.60;;;20.00;;
3417;SDS011;1722;51.316;12.370;2022-12-18T01:55:06;36.20;;;18.10;;
3417;SDS011;1722;51.316;12.370;2022-12-18T01:57:36;39.08;;;20.65;;
3417;SDS011;1722;51.316;12.370;2022-12-18T02:00:05;51.58;;;20.17;;
3417;SDS011;1722;51.316;12.370;2022-12-18T02:02:35;41.55;;;17.70;;
3417;SDS011;1722;51.316;12.370;2022-12-18T02:05:03;40.33;;;19.70;;
3417;SDS011;1722;51.316;12.370;2022-12-18T02:07:36;41.15;;;17.60;;
3417;SDS011;1722;51.316;12.370;2022-12-18T02:10:14;33.25;;;16.77;;
3417;SDS011;1722;51.316;12.370;2022-12-18T02:12:48;39.65;;;17.75;;
3417;SDS011;1722;51.316;12.370;2022-12-18T02:15:22;33.67;;;16.15;;
3417;SDS011;1722;51.316;12.370;2022-12-18T02:17:56;32.28;;;16.52;;
3417;SDS011;1722;51.316;12.370;2022-12-18T02:20:28;32.13;;;15.63;;
3417;SDS011;1722;51.316;12.370;2022-12-18T02:23:06;33.08;;;16.42;;
3417;SDS011;1722;51.316;12.370;2022-12-18T02:25:54;33.92;;;17.55;;
3417;SDS011;1722;51.316;12.370;2022-12-18T02:28:30;36.28;;;17.10;;
3417;SDS011;1722;51.316;12.370;2022-12-18T02:31:01;34.78;;;16.25;;
3417;SDS011;1722;51.316;12.370;2022-12-18T02:33:31;29.75;;;16.08;;
3417;SDS011;1722;51.316;12.370;2022-12-18T02:36:00;25.25;;;15.00;;
3417;SDS011;1722;51.316;12.370;2022-12-18T02:38:29;41.92;;;16.58;;
3417;SDS011;1722;51.316;12.370;2022-12-18T02:40:59;29.10;;;15.18;;
3417;SDS011;1722;51.316;12.370;2022-12-18T02:43:29;34.13;;;15.60;;
3417;SDS011;1722;51.316;12.370;2022-12-18T02:45:57;40.63;;;17.20;;
3417;SDS011;1722;51.316;12.370;2022-12-18T02:48:28;34.47;;;16.30;;
3417;SDS011;1722;51.316;12.370;2022-12-18T02:50:59;34.65;;;16.13;;
3417;SDS011;1722;51.316;12.370;2022-12-18T02:53:33;31.30;;;16.02;;
3417;SDS011;1722;51.316;12.370;2022-12-18T02:56:07;26.00;;;14.18;;
3417;SDS011;1722;51.316;12.370;2022-12-18T02:58:42;29.17;;;16.00;;
3417;SDS011;1722;51.316;12.370;2022-12-18T03:01:16;26.60;;;14.95;;
3417;SDS011;1722;51.316;12.370;2022-12-18T03:03:51;25.90;;;14.45;;
3417;SDS011;1722;51.316;12.370;2022-12-18T03:06:24;29.05;;;14.20;;
3417;SDS011;1722;51.316;12.370;2022-12-18T03:08:56;31.23;;;14.73;;
3417;SDS011;1722;51.316;12.370;2022-12-18T03:11:28;21.88;;;12.43;;
3417;SDS011;1722;51.316;12.370;2022-12-18T03:14:17;22.27;;;12.95;;
3417;SDS011;1722;51.316;12.370;2022-12-18T03:16:47;28.02;;;14.70;;
3417;SDS011;1722;51.316;12.370;2022-12-18T03:19:20;27.45;;;13.25;;
3417;SDS011;1722;51.316;12.370;2022-12-18T03:21:51;30.52;;;15.00;;
3417;SDS011;1722;51.316;12.370;2022-12-18T03:24:22;25.27;;;12.48;;
3417;SDS011;1722;51.316;12.370;2022-12-18T03:26:52;29.00;;;13.57;;
3417;SDS011;1722;51.316;12.370;2022-12-18T03:29:25;32.10;;;13.68;;
3417;SDS011;1722;51.316;12.370;2022-12-18T03:31:55;28.00;;;15.57;;
3417;SDS011;1722;51.316;12.370;2022-12-18T03:34:29;28.38;;;13.80;;
3417;SDS011;1722;51.316;12.370;2022-12-18T03:36:59;32.83;;;14.82;;
3417;SDS011;1722;51.316;12.370;2022-12-18T03:39:27;29.65;;;14.23;;
3417;SDS011;1722;51.316;12.370;2022-12-18T03:41:57;30.42;;;14.10;;
3417;SDS011;1722;51.316;12.370;2022-12-18T03:44:31;30.52;;;13.45;;
3417;SDS011;1722;51.316;12.370;2022-12-18T03:47:04;29.05;;;14.18;;
3417;SDS011;1722;51.316;12.370;2022-12-18T03:49:35;24.60;;;12.60;;
3417;SDS011;1722;51.316;12.370;2022-12-18T03:52:08;23.95;;;12.30;;
3417;SDS011;1722;51.316;12.370;2022-12-18T03:54:40;26.05;;;11.85;;
3417;SDS011;1722;51.316;12.370;2022-12-18T03:57:11;26.17;;;13.07;;
3417;SDS011;1722;51.316;12.370;2022-12-18T03:59:42;22.92;;;12.43;;
3417;SDS011;1722;51.316;12.370;2022-12-18T04:02:12;28.88;;;11.98;;
3417;SDS011;1722;51.316;12.370;2022-12-18T04:04:42;23.38;;;12.48;;
3417;SDS011;1722;51.316;12.370;2022-12-18T04:07:11;29.70;;;12.65;;
3417;SDS011;1722;51.316;12.370;2022-12-18T04:09:40;24.13;;;12.00;;
3417;SDS011;1722;51.316;12.370;2022-12-18T04:12:11;22.83;;;11.45;;
3417;SDS011;1722;51.316;12.370;2022-12-18T04:14:39;27.25;;;11.98;;
3417;SDS011;1722;51.316;12.370;2022-12-18T04:17:06;21.52;;;11.27;;
3417;SDS011;1722;51.316;12.370;2022-12-18T04:19:34;26.30;;;12.45;;
3417;SDS011;1722;51.316;12.370;2022-12-18T04:22:02;24.50;;;12.60;;
3417;SDS011;1722;51.316;12.370;2022-12-18T04:24:29;24.42;;;11.82;;
3417;SDS011;1722;51.316;12.370;2022-12-18T04:26:57;21.95;;;12.98;;
3417;SDS011;1722;51.316;12.370;2022-12-18T04:29:26;21.40;;;10.90;;
3417;SDS011;1722;51.316;12.370;2022-12-18T04:31:53;28.67;;;12.98;;
3417;SDS011;1722;51.316;12.370;2022-12-18T04:34:21;24.48;;;11.35;;
3417;SDS011;1722;51.316;12.370;2022-12-18T04:36:49;21.70;;;11.55;;
3417;SDS011;1722;51.316;12.370;2022-12-18T04:39:16;19.92;;;9.82;;
3417;SDS011;1722;51.316;12.370;2022-12-18T04:41:44;23.30;;;11.77;;
3417;SDS011;1722;51.316;12.370;2022-12-18T04:44:11;24.83;;;10.93;;
3417;SDS011;1722;51.316;12.370;2022-12-18T04:46:40;23.10;;;11.95;;
3417;SDS011;1722;51.316;12.370;2022-12-18T04:49:08;20.08;;;10.50;;
3417;SDS011;1722;51.316;12.370;2022-12-18T04:51:36;27.80;;;11.70;;
3417;SDS011;1722;51.316;12.370;2022-12-18T04:54:04;21.73;;;11.02;;
3417;SDS011;1722;51.316;12.370;2022-12-18T04:56:31;22.52;;;11.40;;
3417;SDS011;1722;51.316;12.370;2022-12-18T04:58:59;19.25;;;9.90;;
3417;SDS011;1722;51.316;12.370;2022-12-18T05:01:26;18.35;;;10.40;;
3417;SDS011;1722;51.316;12.370;2022-12-18T05:03:55;20.45;;;9.82;;
3417;SDS011;1722;51.316;12.370;2022-12-18T05:06:23;17.15;;;10.02;;
3417;SDS011;1722;51.316;12.370;2022-12-18T05:08:50;21.80;;;10.00;;
3417;SDS011;1722;51.316;12.370;2022-12-18T05:11:18;21.25;;;10.55;;
3417;SDS011;1722;51.316;12.370;2022-12-18T05:13:45;22.40;;;9.70;;
3417;SDS011;1722;51.316;12.370;2022-12-18T05:16:13;20.10;;;10.27;;
3417;SDS011;1722;51.316;12.370;2022-12-18T05:18:41;16.20;;;9.13;;
3417;SDS011;1722;51.316;12.370;2022-12-18T05:21:10;17.92;;;9.18;;
3417;SDS011;1722;51.316;12.370;2022-12-18T05:23:38;19.77;;;9.73;;
3417;SDS011;1722;51.316;12.370;2022-12-18T05:26:06;14.38;;;8.70;;
3417;SDS011;1722;51.316;12.370;2022-12-18T05:28:34;17.85;;;9.63;;
3417;SDS011;1722;51.316;12.370;2022-12-18T05:31:02;16.10;;;9.02;;
3417;SDS011;1722;51.316;12.370;2022-12-18T05:33:31;17.02;;;9.60;;
3417;SDS011;1722;51.316;12.370;2022-12-18T05:36:00;18.15;;;10.65;;
3417;SDS011;1722;51.316;12.370;2022-12-18T05:38:30;20.83;;;10.50;;
3417;SDS011;1722;51.316;12.370;2022-12-18T05:40:59;18.58;;;9.25;;
3417;SDS011;1722;51.316;12.370;2022-12-18T05:43:27;18.85;;;9.63;;
3417;SDS011;1722;51.316;12.370;2022-12-18T05:45:55;18.83;;;9.90;;
3417;SDS011;1722;51.316;12.370;2022-12-18T05:48:23;19.52;;;9.35;;
3417;SDS011;1722;51.316;12.370;2022-12-18T05:50:51;16.70;;;8.55;;
3417;SDS011;1722;51.316;12.370;2022-12-18T05:53:19;15.98;;;9.00;;
3417;SDS011;1722;51.316;12.370;2022-12-18T05:55:49;13.77;;;8.02;;
3417;SDS011;1722;51.316;12.370;2022-12-18T05:58:16;19.20;;;9.43;;
3417;SDS011;1722;51.316;12.370;2022-12-18T06:00:44;14.48;;;8.93;;
3417;SDS011;1722;51.316;12.370;2022-12-18T06:03:12;22.30;;;10.05;;
3417;SDS011;1722;51.316;12.370;2022-12-18T06:05:41;21.17;;;8.80;;
3417;SDS011;1722;51.316;12.370;2022-12-18T06:08:10;18.25;;;8.82;;
3417;SDS011;1722;51.316;12.370;2022-12-18T06:10:38;23.17;;;9.55;;
3417;SDS011;1722;51.316;12.370;2022-12-18T06:13:07;18.15;;;9.00;;
3417;SDS011;1722;51.316;12.370;2022-12-18T06:15:35;14.48;;;8.63;;
3417;SDS011;1722;51.316;12.370;2022-12-18T06:18:03;14.73;;;8.60;;
3417;SDS011;1722;51.316;12.370;2022-12-18T06:20:31;17.80;;;8.82;;
3417;SDS011;1722;51.316;12.370;2022-12-18T06:22:59;15.13;;;8.88;;
3417;SDS011;1722;51.316;12.370;2022-12-18T06:25:26;18.33;;;9.20;;
3417;SDS011;1722;51.316;12.370;2022-12-18T06:27:54;12.00;;;7.03;;
3417;SDS011;1722;51.316;12.370;2022-12-18T06:30:23;17.67;;;8.88;;
3417;SDS011;1722;51.316;12.370;2022-12-18T06:32:51;16.38;;;8.75;;
3417;SDS011;1722;51.316;12.370;2022-12-18T06:35:18;18.80;;;8.90;;
3417;SDS011;1722;51.316;12.370;2022-12-18T06:37:45;19.88;;;9.63;;
3417;SDS011;1722;51.316;12.370;2022-12-18T06:40:13;14.43;;;7.50;;
3417;SDS011;1722;51.316;12.370;2022-12-18T06:42:41;13.85;;;8.40;;
3417;SDS011;1722;51.316;12.370;2022-12-18T06:45:09;14.30;;;8.32;;
3417;SDS011;1722;51.316;12.370;2022-12-18T06:47:38;12.95;;;8.10;;
3417;SDS011;1722;51.316;12.370;2022-12-18T06:50:06;14.32;;;8.25;;
3417;SDS011;1722;51.316;12.370;2022-12-18T06:52:34;18.63;;;8.55;;
3417;SDS011;1722;51.316;12.370;2022-12-18T06:55:02;15.98;;;9.25;;
3417;SDS011;1722;51.316;12.370;2022-12-18T06:57:31;17.60;;;8.00;;
3417;SDS011;1722;51.316;12.370;2022-12-18T06:59:58;20.23;;;8.07;;
3417;SDS011;1722;51.316;12.370;2022-12-18T07:02:26;14.57;;;8.30;;
3417;SDS011;1722;51.316;12.370;2022-12-18T07:04:55;18.98;;;8.85;;
3417;SDS011;1722;51.316;12.370;2022-12-18T07:07:22;16.85;;;8.93;;
3417;SDS011;1722;51.316;12.370;2022-12-18T07:09:50;16.88;;;8.60;;
3417;SDS011;1722;51.316;12.370;2022-12-18T07:12:18;16.08;;;8.20;;
3417;SDS011;1722;51.316;12.370;2022-12-18T07:14:45;15.60;;;8.88;;
3417;SDS011;1722;51.316;12.370;2022-12-18T07:17:13;18.25;;;9.73;;
3417;SDS011;1722;51.316;12.370;2022-12-18T07:19:40;21.25;;;10.93;;
3417;SDS011;1722;51.316;12.370;2022-12-18T07:22:09;20.48;;;10.65;;
3417;SDS011;1722;51.316;12.370;2022-12-18T07:24:37;21.40;;;10.30;;
3417;SDS011;1722;51.316;12.370;2022-12-18T07:27:04;16.95;;;8.98;;
3417;SDS011;1722;51.316;12.370;2022-12-18T07:29:32;17.92;;;9.65;;
3417;SDS011;1722;51.316;12.370;2022-12-18T07:31:59;17.85;;;10.07;;
3417;SDS011;1722;51.316;12.370;2022-12-18T07:34:27;18.75;;;9.50;;
3417;SDS011;1722;51.316;12.370;2022-12-18T07:36:54;25.30;;;9.20;;
3417;SDS011;1722;51.316;12.370;2022-12-18T07:39:23;14.73;;;8.20;;
3417;SDS011;1722;51.316;12.370;2022-12-18T07:41:51;16.08;;;8.65;;
3417;SDS011;1722;51.316;12.370;2022-12-18T07:44:32;17.95;;;8.63;;
3417;SDS011;1722;51.316;12.370;2022-12-18T07:46:59;14.70;;;7.95;;
3417;SDS011;1722;51.316;12.370;2022-12-18T07:49:27;14.10;;;7.85;;
3417;SDS011;1722;51.316;12.370;2022-12-18T07:51:55;16.73;;;8.15;;
3417;SDS011;1722;51.316;12.370;2022-12-18T07:54:24;13.65;;;7.45;;
3417;SDS011;1722;51.316;12.370;2022-12-18T07:56:51;16.70;;;8.23;;
3417;SDS011;1722;51.316;12.370;2022-12-18T07:59:19;16.58;;;8.25;;
3417;SDS011;1722;51.316;12.370;2022-12-18T08:01:46;16.35;;;8.85;;
3417;SDS011;1722;51.316;12.370;2022-12-18T08:04:14;17.30;;;7.90;;
3417;SDS011;1722;51.316;12.370;2022-12-18T08:06:41;12.07;;;6.65;;
3417;SDS011;1722;51.316;12.370;2022-12-18T08:09:09;12.23;;;7.28;;
3417;SDS011;1722;51.316;12.370;2022-12-18T08:11:38;15.35;;;6.85;;
3417;SDS011;1722;51.316;12.370;2022-12-18T08:14:05;21.10;;;8.02;;
3417;SDS011;1722;51.316;12.370;2022-12-18T08:16:33;13.38;;;7.60;;
3417;SDS011;1722;51.316;12.370;2022-12-18T08:19:01;13.50;;;7.53;;
3417;SDS011;1722;51.316;12.370;2022-12-18T08:21:29;12.40;;;7.05;;
3417;SDS011;1722;51.316;12.370;2022-12-18T08:23:58;13.35;;;7.75;;
3417;SDS011;1722;51.316;12.370;2022-12-18T08:26:29;13.80;;;7.40;;
3417;SDS011;1722;51.316;12.370;2022-12-18T08:28:58;11.50;;;7.13;;
3417;SDS011;1722;51.316;12.370;2022-12-18T08:31:27;13.70;;;7.25;;
3417;SDS011;1722;51.316;12.370;2022-12-18T08:33:56;11.98;;;6.53;;
3417;SDS011;1722;51.316;12.370;2022-12-18T08:36:24;10.68;;;6.90;;
3417;SDS011;1722;51.316;12.370;2022-12-18T08:38:52;15.13;;;7.43;;
3417;SDS011;1722;51.316;12.370;2022-12-18T08:41:19;12.82;;;6.85;;
3417;SDS011;1722;51.316;12.370;2022-12-18T08:43:48;11.68;;;7.15;;
3417;SDS011;1722;51.316;12.370;2022-12-18T08:46:35;15.70;;;8.65;;
3417;SDS011;1722;51.316;12.370;2022-12-18T08:49:04;18.67;;;10.27;;
3417;SDS011;1722;51.316;12.370;2022-12-18T08:51:32;21.00;;;10.77;;
3417;SDS011;1722;51.316;12.370;2022-12-18T08:54:00;19.60;;;8.35;;
3417;SDS011;1722;51.316;12.370;2022-12-18T08:56:28;13.93;;;7.95;;
3417;SDS011;1722;51.316;12.370;2022-12-18T08:58:56;11.10;;;7.05;;
3417;SDS011;1722;51.316;12.370;2022-12-18T09:01:24;14.30;;;8.75;;
3417;SDS011;1722;51.316;12.370;2022-12-18T09:03:53;16.73;;;10.57;;
3417;SDS011;1722;51.316;12.370;2022-12-18T09:06:21;17.73;;;9.80;;
3417;SDS011;1722;51.316;12.370;2022-12-18T09:08:49;16.58;;;8.45;;
3417;SDS011;1722;51.316;12.370;2022-12-18T09:11:19;14.85;;;9.30;;
3417;SDS011;1722;51.316;12.370;2022-12-18T09:13:47;13.43;;;7.63;;
3417;SDS011;1722;51.316;12.370;2022-12-18T09:16:15;11.48;;;6.47;;
3417;SDS011;1722;51.316;12.370;2022-12-18T09:18:43;12.65;;;7.68;;
3417;SDS011;1722;51.316;12.370;2022-12-18T09:21:13;16.35;;;7.20;;
3417;SDS011;1722;51.316;12.370;2022-12-18T09:23:41;9.63;;;6.13;;
3417;SDS011;1722;51.316;12.370;2022-12-18T09:26:09;13.23;;;7.15;;
3417;SDS011;1722;51.316;12.370;2022-12-18T09:28:37;14.63;;;7.68;;
3417;SDS011;1722;51.316;12.370;2022-12-18T09:31:05;16.67;;;9.73;;
3417;SDS011;1722;51.316;12.370;2022-12-18T09:33:34;16.05;;;8.77;;
3417;SDS011;1722;51.316;12.370;2022-12-18T09:36:02;30.38;;;13.70;;
3417;SDS011;1722;51.316;12.370;2022-12-18T09:38:33;15.23;;;8.10;;
3417;SDS011;1722;51.316;12.370;2022-12-18T09:41:03;15.50;;;7.50;;
3417;SDS011;1722;51.316;12.370;2022-12-18T09:43:40;16.25;;;8.55;;
3417;SDS011;1722;51.316;12.370;2022-12-18T09:46:15;17.17;;;8.52;;
3417;SDS011;1722;51.316;12.370;2022-12-18T09:48:48;11.25;;;6.60;;
3417;SDS011;1722;51.316;12.370;2022-12-18T09:51:19;12.20;;;6.95;;
3417;SDS011;1722;51.316;12.370;2022-12-18T09:53:53;10.60;;;6.03;;
3417;SDS011;1722;51.316;12.370;2022-12-18T09:56:26;10.57;;;6.45;;
3417;SDS011;1722;51.316;12.370;2022-12-18T09:58:59;13.52;;;6.85;;
3417;SDS011;1722;51.316;12.370;2022-12-18T10:01:29;11.82;;;7.25;;
3417;SDS011;1722;51.316;12.370;2022-12-18T10:03:57;13.23;;;6.32;;
3417;SDS011;1722;51.316;12.370;2022-12-18T10:06:26;16.52;;;7.47;;
3417;SDS011;1722;51.316;12.370;2022-12-18T10:09:01;13.35;;;6.82;;
3417;SDS011;1722;51.316;12.370;2022-12-18T10:11:40;10.40;;;6.07;;
3417;SDS011;1722;51.316;12.370;2022-12-18T10:14:14;11.85;;;6.15;;
3417;SDS011;1722;51.316;12.370;2022-12-18T10:16:47;8.60;;;5.55;;
3417;SDS011;1722;51.316;12.370;2022-12-18T10:19:27;10.70;;;5.50;;
3417;SDS011;1722;51.316;12.370;2022-12-18T10:22:03;8.32;;;5.47;;
3417;SDS011;1722;51.316;12.370;2022-12-18T10:24:42;10.32;;;5.15;;
3417;SDS011;1722;51.316;12.370;2022-12-18T10:27:15;8.18;;;5.68;;
3417;SDS011;1722;51.316;12.370;2022-12-18T10:29:45;10.60;;;6.32;;
3417;SDS011;1722;51.316;12.370;2022-12-18T10:32:13;12.57;;;5.60;;
3417;SDS011;1722;51.316;12.370;2022-12-18T10:34:46;10.65;;;6.07;;
3417;SDS011;1722;51.316;12.370;2022-12-18T10:37:15;8.15;;;5.15;;
3417;SDS011;1722;51.316;12.370;2022-12-18T10:39:46;8.82;;;5.70;;
3417;SDS011;1722;51.316;12.370;2022-12-18T10:42:31;8.20;;;5.40;;
3417;SDS011;1722;51.316;12.370;2022-12-18T10:45:00;9.98;;;5.78;;
3417;SDS011;1722;51.316;12.370;2022-12-18T10:47:30;10.40;;;5.45;;
3417;SDS011;1722;51.316;12.370;2022-12-18T10:49:58;15.45;;;5.82;;
3417;SDS011;1722;51.316;12.370;2022-12-18T10:52:26;9.77;;;6.25;;
3417;SDS011;1722;51.316;12.370;2022-12-18T10:54:57;11.98;;;6.05;;
3417;SDS011;1722;51.316;12.370;2022-12-18T10:57:31;8.90;;;5.55;;
3417;SDS011;1722;51.316;12.370;2022-12-18T11:00:22;9.82;;;5.72;;
3417;SDS011;1722;51.316;12.370;2022-12-18T11:02:51;11.25;;;5.55;;
3417;SDS011;1722;51.316;12.370;2022-12-18T11:05:26;9.82;;;6.15;;
3417;SDS011;1722;51.316;12.370;2022-12-18T11:07:56;9.85;;;5.85;;
3417;SDS011;1722;51.316;12.370;2022-12-18T11:10:30;17.70;;;6.43;;
3417;SDS011;1722;51.316;12.370;2022-12-18T11:13:11;9.20;;;5.55;;
3417;SDS011;1722;51.316;12.370;2022-12-18T11:15:44;13.20;;;7.05;;
3417;SDS011;1722;51.316;12.370;2022-12-18T11:18:16;10.38;;;5.63;;
3417;SDS011;1722;51.316;12.370;2022-12-18T11:20:50;10.13;;;6.45;;
3417;SDS011;1722;51.316;12.370;2022-12-18T11:23:19;10.23;;;6.05;;
3417;SDS011;1722;51.316;12.370;2022-12-18T11:25:52;12.15;;;6.45;;
3417;SDS011;1722;51.316;12.370;2022-12-18T11:28:26;10.25;;;6.28;;
3417;SDS011;1722;51.316;12.370;2022-12-18T11:31:23;12.48;;;6.55;;
3417;SDS011;1722;51.316;12.370;2022-12-18T11:33:55;12.98;;;6.70;;
3417;SDS011;1722;51.316;12.370;2022-12-18T11:36:26;13.80;;;7.20;;
3417;SDS011;1722;51.316;12.370;2022-12-18T11:38:59;12.30;;;7.05;;
3417;SDS011;1722;51.316;12.370;2022-12-18T11:41:34;12.10;;;7.00;;
3417;SDS011;1722;51.316;12.370;2022-12-18T11:44:24;13.70;;;6.28;;
3417;SDS011;1722;51.316;12.370;2022-12-18T11:46:55;14.90;;;6.95;;
3417;SDS011;1722;51.316;12.370;2022-12-18T11:49:28;14.85;;;8.32;;
3417;SDS011;1722;51.316;12.370;2022-12-18T11:52:01;10.40;;;7.40;;
3417;SDS011;1722;51.316;12.370;2022-12-18T11:54:34;10.60;;;6.60;;
3417;SDS011;1722;51.316;12.370;2022-12-18T11:57:05;13.48;;;6.60;;
3417;SDS011;1722;51.316;12.370;2022-12-18T11:59:43;10.60;;;6.85;;
3417;SDS011;1722;51.316;12.370;2022-12-18T12:02:25;12.90;;;7.47;;
3417;SDS011;1722;51.316;12.370;2022-12-18T12:05:18;14.20;;;7.47;;
3417;SDS011;1722;51.316;12.370;2022-12-18T12:07:58;13.25;;;7.50;;
3417;SDS011;1722;51.316;12.370;2022-12-18T12:10:39;13.68;;;6.72;;
3417;SDS011;1722;51.316;12.370;2022-12-18T12:13:20;11.43;;;6.97;;
3417;SDS011;1722;51.316;12.370;2022-12-18T12:16:00;17.85;;;7.60;;
3417;SDS011;1722;51.316;12.370;2022-12-18T12:18:40;11.60;;;7.22;;
3417;SDS011;1722;51.316;12.370;2022-12-18T12:21:20;11.27;;;7.15;;
3417;SDS011;1722;51.316;12.370;2022-12-18T12:23:55;11.63;;;6.38;;
3417;SDS011;1722;51.316;12.370;2022-12-18T12:26:33;10.98;;;7.38;;
3417;SDS011;1722;51.316;12.370;2022-12-18T12:29:10;10.77;;;7.35;;
3417;SDS011;1722;51.316;12.370;2022-12-18T12:31:59;17.95;;;8.02;;
3417;SDS011;1722;51.316;12.370;2022-12-18T12:34:34;11.77;;;7.40;;
3417;SDS011;1722;51.316;12.370;2022-12-18T12:37:13;12.85;;;8.13;;
3417;SDS011;1722;51.316;12.370;2022-12-18T12:39:48;13.45;;;7.00;;
3417;SDS011;1722;51.316;12.370;2022-12-18T12:42:33;15.00;;;8.20;;
3417;SDS011;1722;51.316;12.370;2022-12-18T12:45:26;13.85;;;7.70;;
3417;SDS011;1722;51.316;12.370;2022-12-18T12:47:57;14.35;;;7.32;;
3417;SDS011;1722;51.316;12.370;2022-12-18T12:50:26;10.50;;;6.85;;
3417;SDS011;1722;51.316;12.370;2022-12-18T12:52:54;13.18;;;7.10;;
3417;SDS011;1722;51.316;12.370;2022-12-18T12:55:24;16.13;;;8.18;;
3417;SDS011;1722;51.316;12.370;2022-12-18T12:57:58;12.63;;;7.15;;
3417;SDS011;1722;51.316;12.370;2022-12-18T13:00:36;19.75;;;7.55;;
3417;SDS011;1722;51.316;12.370;2022-12-18T13:03:08;14.20;;;8.30;;
3417;SDS011;1722;51.316;12.370;2022-12-18T13:05:44;17.15;;;9.85;;
3417;SDS011;1722;51.316;12.370;2022-12-18T13:08:22;15.20;;;8.52;;
3417;SDS011;1722;51.316;12.370;2022-12-18T13:10:52;15.88;;;9.45;;
3417;SDS011;1722;51.316;12.370;2022-12-18T13:13:47;13.60;;;9.02;;
3417;SDS011;1722;51.316;12.370;2022-12-18T13:16:19;24.80;;;9.98;;
3417;SDS011;1722;51.316;12.370;2022-12-18T13:18:48;14.48;;;8.68;;
3417;SDS011;1722;51.316;12.370;2022-12-18T13:21:19;16.67;;;9.70;;
3417;SDS011;1722;51.316;12.370;2022-12-18T13:23:50;20.33;;;10.85;;
3417;SDS011;1722;51.316;12.370;2022-12-18T13:26:31;17.73;;;10.10;;
3417;SDS011;1722;51.316;12.370;2022-12-18T13:29:00;16.60;;;9.10;;
3417;SDS011;1722;51.316;12.370;2022-12-18T13:34:29;20.90;;;9.95;;
3417;SDS011;1722;51.316;12.370;2022-12-18T13:37:33;17.98;;;10.60;;
3417;SDS011;1722;51.316;12.370;2022-12-18T13:40:06;17.92;;;9.60;;
3417;SDS011;1722;51.316;12.370;2022-12-18T13:43:15;19.27;;;9.90;;
3417;SDS011;1722;51.316;12.370;2022-12-18T13:46:01;16.58;;;9.82;;
3417;SDS011;1722;51.316;12.370;2022-12-18T13:48:33;18.13;;;10.02;;
3417;SDS011;1722;51.316;12.370;2022-12-18T13:51:03;18.00;;;10.40;;
3417;SDS011;1722;51.316;12.370;2022-12-18T13:53:34;18.88;;;9.35;;
3417;SDS011;1722;51.316;12.370;2022-12-18T13:56:05;20.40;;;10.20;;
3417;SDS011;1722;51.316;12.370;2022-12-18T13:58:32;15.77;;;9.50;;
3417;SDS011;1722;51.316;12.370;2022-12-18T14:01:00;16.83;;;9.93;;
3417;SDS011;1722;51.316;12.370;2022-12-18T14:03:30;17.42;;;10.27;;
3417;SDS011;1722;51.316;12.370;2022-12-18T14:06:03;17.25;;;9.57;;
3417;SDS011;1722;51.316;12.370;2022-12-18T14:08:38;20.95;;;10.10;;
3417;SDS011;1722;51.316;12.370;2022-12-18T14:11:07;19.95;;;10.10;;
3417;SDS011;1722;51.316;12.370;2022-12-18T14:13:46;20.88;;;9.32;;
3417;SDS011;1722;51.316;12.370;2022-12-18T14:16:14;17.42;;;10.02;;
3417;SDS011;1722;51.316;12.370;2022-12-18T14:18:44;23.90;;;11.73;;
3417;SDS011;1722;51.316;12.370;2022-12-18T14:21:18;19.17;;;11.57;;
3417;SDS011;1722;51.316;12.370;2022-12-18T14:23:48;17.23;;;10.20;;
3417;SDS011;1722;51.316;12.370;2022-12-18T14:26:32;17.70;;;10.32;;
3417;SDS011;1722;51.316;12.370;2022-12-18T14:29:01;21.13;;;11.77;;
3417;SDS011;1722;51.316;12.370;2022-12-18T14:31:46;22.63;;;11.50;;
3417;SDS011;1722;51.316;12.370;2022-12-18T14:34:32;23.67;;;12.00;;
3417;SDS011;1722;51.316;12.370;2022-12-18T14:37:01;25.30;;;13.98;;
3417;SDS011;1722;51.316;12.370;2022-12-18T14:39:28;21.35;;;11.70;;
3417;SDS011;1722;51.316;12.370;2022-12-18T14:41:56;22.60;;;12.70;;
3417;SDS011;1722;51.316;12.370;2022-12-18T14:44:23;21.50;;;12.73;;
3417;SDS011;1722;51.316;12.370;2022-12-18T14:46:51;22.80;;;12.60;;
3417;SDS011;1722;51.316;12.370;2022-12-18T14:49:20;20.30;;;12.05;;
3417;SDS011;1722;51.316;12.370;2022-12-18T14:51:52;28.00;;;12.93;;
3417;SDS011;1722;51.316;12.370;2022-12-18T14:54:23;27.63;;;14.27;;
3417;SDS011;1722;51.316;12.370;2022-12-18T14:56:53;26.23;;;14.10;;
3417;SDS011;1722;51.316;12.370;2022-12-18T14:59:26;28.00;;;14.52;;
3417;SDS011;1722;51.316;12.370;2022-12-18T15:01:57;25.23;;;14.38;;
3417;SDS011;1722;51.316;12.370;2022-12-18T15:04:28;24.95;;;13.90;;
3417;SDS011;1722;51.316;12.370;2022-12-18T15:07:04;27.50;;;14.60;;
3417;SDS011;1722;51.316;12.370;2022-12-18T15:09:40;26.63;;;13.38;;